Time,TemperatureF,DewpointF,PressureIn,WindDirection,WindDirectionDegrees,WindSpeedMPH,WindSpeedGustMPH,Humidity,HourlyPrecipIn,Conditions,Clouds,dailyrainin,SolarRadiationWatts/m^2,SoftwareType,DateUTC
2013-07-12 00:01:00,58.0,57.0,-100.00,South,190,0.0,0.0,95,0.00,,,0.33,0.000000,,2013-07-12 04:01:00,
2013-07-12 00:10:00,56.0,55.0,-100.00,East,84,0.0,0.0,96,0.00,,,0.33,0.000000,,2013-07-12 04:10:00,
2013-07-12 00:43:00,56.0,55.0,-100.00,East,84,0.0,0.0,96,0.00,,,0.33,0.000000,,2013-07-12 04:43:00,
2013-07-12 00:53:00,56.0,55.0,-100.00,East,84,0.0,0.0,96,0.00,,,0.33,0.000000,,2013-07-12 04:53:00,
2013-07-12 01:02:00,56.0,55.0,-100.00,East,84,0.0,0.0,96,0.00,,,0.33,0.000000,,2013-07-12 05:02:00,
2013-07-12 01:10:00,55.0,54.0,-100.00,East,100,0.0,0.0,97,0.00,,,0.33,0.000000,,2013-07-12 05:10:00,
2013-07-12 01:43:00,55.0,54.0,-100.00,East,100,0.0,0.0,97,0.00,,,0.33,0.000000,,2013-07-12 05:43:00,
2013-07-12 01:53:00,55.0,54.0,-100.00,East,100,0.0,0.0,97,0.00,,,0.33,0.000000,,2013-07-12 05:53:00,
2013-07-12 02:01:00,55.0,54.0,-100.00,East,100,0.0,0.0,97,0.00,,,0.33,0.000000,,2013-07-12 06:01:00,
2013-07-12 02:10:00,54.0,53.0,-100.00,ESE,105,0.0,0.0,97,0.00,,,0.33,0.000000,,2013-07-12 06:10:00,
2013-07-12 02:42:00,54.0,53.0,-100.00,ESE,105,0.0,0.0,97,0.00,,,0.33,0.000000,,2013-07-12 06:42:00,
2013-07-12 02:52:00,54.0,53.0,-100.00,ESE,105,0.0,0.0,97,0.00,,,0.33,0.000000,,2013-07-12 06:52:00,
2013-07-12 03:02:00,54.0,53.0,-100.00,ESE,105,0.0,0.0,97,0.00,,,0.33,0.000000,,2013-07-12 07:02:00,
2013-07-12 03:10:00,54.0,53.0,-100.00,East,100,0.0,0.0,97,0.00,,,0.33,0.000000,,2013-07-12 07:10:00,
2013-07-12 03:43:00,54.0,53.0,-100.00,East,100,0.0,0.0,97,0.00,,,0.33,0.000000,,2013-07-12 07:43:00,
2013-07-12 03:52:00,54.0,53.0,-100.00,East,100,0.0,0.0,97,0.00,,,0.33,0.000000,,2013-07-12 07:52:00,
2013-07-12 04:02:00,54.0,53.0,-100.00,East,100,0.0,0.0,97,0.00,,,0.33,0.000000,,2013-07-12 08:02:00,
2013-07-12 04:10:00,53.0,52.0,-100.00,ENE,69,0.0,0.0,97,0.00,,,0.33,0.000000,,2013-07-12 08:10:00,
2013-07-12 04:42:00,53.0,52.0,-100.00,ENE,69,0.0,0.0,97,0.00,,,0.33,0.000000,,2013-07-12 08:42:00,
2013-07-12 04:53:00,53.0,52.0,-100.00,ENE,69,0.0,0.0,97,0.00,,,0.33,0.000000,,2013-07-12 08:53:00,
2013-07-12 05:02:00,53.0,52.0,-100.00,ENE,69,0.0,0.0,97,0.00,,,0.33,0.000000,,2013-07-12 09:02:00,
2013-07-12 05:10:00,53.0,52.0,-100.00,WSW,244,0.0,0.0,98,0.00,,,0.05,0.000000,,2013-07-12 09:10:00,
2013-07-12 05:32:00,53.0,52.0,-100.00,WSW,244,0.0,0.0,98,0.00,,,0.05,0.000000,,2013-07-12 09:32:00,
2013-07-12 05:43:00,53.0,52.0,-100.00,WSW,244,0.0,0.0,98,0.00,,,0.05,0.000000,,2013-07-12 09:43:00,
2013-07-12 05:52:00,53.0,52.0,-100.00,WSW,244,0.0,0.0,98,0.00,,,0.05,0.000000,,2013-07-12 09:52:00,
2013-07-12 06:01:00,53.0,52.0,-100.00,WSW,244,0.0,0.0,98,0.00,,,0.05,0.000000,,2013-07-12 10:01:00,
2013-07-12 06:10:00,53.0,52.0,-100.00,ENE,62,0.0,0.0,98,0.00,,,0.05,11.000000,,2013-07-12 10:10:00,
2013-07-12 06:43:00,53.0,52.0,-100.00,ENE,62,0.0,0.0,98,0.00,,,0.05,11.000000,,2013-07-12 10:43:00,
2013-07-12 06:52:00,53.0,52.0,-100.00,ENE,62,0.0,0.0,98,0.00,,,0.05,11.000000,,2013-07-12 10:52:00,
2013-07-12 07:02:00,53.0,52.0,-100.00,ENE,62,0.0,0.0,98,0.00,,,0.05,11.000000,,2013-07-12 11:02:00,
2013-07-12 07:10:00,55.0,54.0,-100.00,ENE,77,0.0,0.0,98,0.00,,,0.03,30.000000,,2013-07-12 11:10:00,
2013-07-12 07:43:00,55.0,54.0,-100.00,ENE,77,0.0,0.0,98,0.00,,,0.03,30.000000,,2013-07-12 11:43:00,
2013-07-12 07:53:00,55.0,54.0,-100.00,ENE,77,0.0,0.0,98,0.00,,,0.03,30.000000,,2013-07-12 11:53:00,
2013-07-12 08:02:00,55.0,54.0,-100.00,ENE,77,0.0,0.0,98,0.00,,,0.03,30.000000,,2013-07-12 12:02:00,
2013-07-12 08:10:00,65.0,63.0,-100.00,WNW,297,1.0,4.0,94,0.00,,,0.02,197.000000,,2013-07-12 12:10:00,
2013-07-12 08:43:00,65.0,63.0,-100.00,WNW,297,1.0,4.0,94,0.00,,,0.02,197.000000,,2013-07-12 12:43:00,
2013-07-12 08:53:00,65.0,63.0,-100.00,WNW,297,1.0,4.0,94,0.00,,,0.02,197.000000,,2013-07-12 12:53:00,
2013-07-12 09:01:00,65.0,63.0,-100.00,WNW,297,1.0,4.0,94,0.00,,,0.02,197.000000,,2013-07-12 13:01:00,
2013-07-12 09:10:00,70.0,60.0,-100.00,NW,326,1.0,4.0,71,0.00,,,0.00,238.000000,,2013-07-12 13:10:00,
2013-07-12 09:43:00,70.0,60.0,-100.00,NW,326,1.0,4.0,71,0.00,,,0.00,238.000000,,2013-07-12 13:43:00,
2013-07-12 09:53:00,70.0,60.0,-100.00,NW,326,1.0,4.0,71,0.00,,,0.00,238.000000,,2013-07-12 13:53:00,
2013-07-12 10:02:00,70.0,60.0,-100.00,NW,326,1.0,4.0,71,0.00,,,0.00,238.000000,,2013-07-12 14:02:00,
2013-07-12 10:10:00,75.0,62.0,-100.00,WNW,300,2.0,4.0,65,0.00,,,0.00,568.000000,,2013-07-12 14:10:00,
2013-07-12 10:44:00,75.0,62.0,-100.00,WNW,300,2.0,4.0,65,0.00,,,0.00,568.000000,,2013-07-12 14:44:00,
2013-07-12 10:53:00,75.0,62.0,-100.00,WNW,300,2.0,4.0,65,0.00,,,0.00,568.000000,,2013-07-12 14:53:00,
2013-07-12 11:02:00,75.0,62.0,-100.00,WNW,300,2.0,4.0,65,0.00,,,0.00,568.000000,,2013-07-12 15:02:00,
2013-07-12 11:10:00,79.0,60.0,-100.00,SW,225,2.0,5.0,52,0.00,,,0.00,726.000000,,2013-07-12 15:10:00,
2013-07-12 11:43:00,79.0,60.0,-100.00,SW,225,2.0,5.0,52,0.00,,,0.00,726.000000,,2013-07-12 15:43:00,
2013-07-12 11:53:00,79.0,60.0,-100.00,SW,225,2.0,5.0,52,0.00,,,0.00,726.000000,,2013-07-12 15:53:00,
2013-07-12 12:02:00,79.0,60.0,-100.00,SW,225,2.0,5.0,52,0.00,,,0.00,726.000000,,2013-07-12 16:02:00,
2013-07-12 12:10:00,81.0,58.0,-100.00,NW,313,2.0,6.0,46,0.00,,,0.00,802.000000,,2013-07-12 16:10:00,
2013-07-12 12:43:00,81.0,58.0,-100.00,NW,313,2.0,6.0,46,0.00,,,0.00,802.000000,,2013-07-12 16:43:00,
2013-07-12 13:07:00,81.0,58.0,-100.00,NW,313,2.0,6.0,46,0.00,,,0.00,802.000000,,2013-07-12 17:07:00,
2013-07-12 13:10:00,83.0,56.0,-100.00,NE,51,2.0,5.0,40,0.00,,,0.00,810.000000,,2013-07-12 17:10:00,
2013-07-12 13:40:00,83.0,56.0,-100.00,NE,51,2.0,5.0,40,0.00,,,0.00,810.000000,,2013-07-12 17:40:00,
2013-07-12 13:47:00,83.0,56.0,-100.00,NE,51,2.0,5.0,40,0.00,,,0.00,810.000000,,2013-07-12 17:47:00,
2013-07-12 13:57:00,83.0,56.0,-100.00,NE,51,2.0,5.0,40,0.00,,,0.00,810.000000,,2013-07-12 17:57:00,
2013-07-12 14:07:00,83.0,56.0,-100.00,NE,51,2.0,5.0,40,0.00,,,0.00,810.000000,,2013-07-12 18:07:00,
2013-07-12 14:10:00,82.0,54.0,-100.00,East,80,2.0,8.0,38,0.00,,,0.00,666.000000,,2013-07-12 18:10:00,
2013-07-12 14:58:00,82.0,54.0,-100.00,East,80,2.0,8.0,38,0.00,,,0.00,666.000000,,2013-07-12 18:58:00,
2013-07-12 15:05:00,82.0,54.0,-100.00,East,80,2.0,8.0,38,0.00,,,0.00,666.000000,,2013-07-12 19:05:00,
2013-07-12 15:10:00,85.0,56.0,-100.00,WSW,252,2.0,5.0,37,0.00,,,0.00,689.000000,,2013-07-12 19:10:00,
2013-07-12 15:48:00,85.0,56.0,-100.00,WSW,252,2.0,5.0,37,0.00,,,0.00,689.000000,,2013-07-12 19:48:00,
2013-07-12 15:59:00,85.0,56.0,-100.00,WSW,252,2.0,5.0,37,0.00,,,0.00,689.000000,,2013-07-12 19:59:00,
2013-07-12 16:47:00,85.0,52.0,-100.00,West,272,4.0,6.0,32,0.00,,,0.00,691.000000,,2013-07-12 20:47:00,
2013-07-12 16:56:00,85.0,52.0,-100.00,West,272,4.0,6.0,32,0.00,,,0.00,691.000000,,2013-07-12 20:56:00,
2013-07-12 17:04:00,85.0,52.0,-100.00,West,272,4.0,6.0,32,0.00,,,0.00,691.000000,,2013-07-12 21:04:00,
2013-07-12 17:10:00,87.0,55.0,-100.00,NW,316,1.0,5.0,34,0.00,,,0.00,530.000000,,2013-07-12 21:10:00,
2013-07-12 17:59:00,87.0,55.0,-100.00,NW,316,1.0,5.0,34,0.00,,,0.00,530.000000,,2013-07-12 21:59:00,
2013-07-12 18:04:00,87.0,55.0,-100.00,NW,316,1.0,5.0,34,0.00,,,0.00,530.000000,,2013-07-12 22:04:00,
2013-07-12 18:10:00,85.0,53.0,-100.00,West,268,2.0,4.0,33,0.00,,,0.00,360.000000,,2013-07-12 22:10:00,
2013-07-12 18:47:00,85.0,53.0,-100.00,West,268,2.0,4.0,33,0.00,,,0.00,360.000000,,2013-07-12 22:47:00,
2013-07-12 18:56:00,85.0,53.0,-100.00,West,268,2.0,4.0,33,0.00,,,0.00,360.000000,,2013-07-12 22:56:00,
2013-07-12 19:45:00,75.0,52.0,-100.00,NNE,15,0.0,5.0,45,0.00,,,0.00,137.000000,,2013-07-12 23:45:00,
2013-07-12 19:58:00,75.0,52.0,-100.00,NNE,15,0.0,5.0,45,0.00,,,0.00,137.000000,,2013-07-12 23:58:00,
2013-07-12 20:08:00,75.0,52.0,-100.00,NNE,15,0.0,5.0,45,0.00,,,0.00,137.000000,,2013-07-13 00:08:00,
2013-07-12 21:10:00,65.0,60.0,-100.00,East,98,0.0,0.0,85,-99.99,,,0.00,3.000000,,2013-07-13 01:10:00,
2013-07-12 21:50:00,65.0,60.0,-100.00,East,98,0.0,0.0,85,-99.99,,,0.00,3.000000,,2013-07-13 01:50:00,
2013-07-12 21:58:00,65.0,60.0,-100.00,East,98,0.0,0.0,85,-99.99,,,0.00,3.000000,,2013-07-13 01:58:00,
2013-07-12 22:08:00,65.0,60.0,-100.00,East,98,0.0,0.0,85,-99.99,,,0.00,3.000000,,2013-07-13 02:08:00,
2013-07-12 22:10:00,62.0,59.0,-100.00,ESE,116,0.0,0.0,89,0.00,,,0.00,0.000000,,2013-07-13 02:10:00,
2013-07-12 22:48:00,62.0,59.0,-100.00,ESE,116,0.0,0.0,89,0.00,,,0.00,0.000000,,2013-07-13 02:48:00,
2013-07-12 22:56:00,62.0,59.0,-100.00,ESE,116,0.0,0.0,89,0.00,,,0.00,0.000000,,2013-07-13 02:56:00,
2013-07-12 23:06:00,62.0,59.0,-100.00,ESE,116,0.0,0.0,89,0.00,,,0.00,0.000000,,2013-07-13 03:06:00,
2013-07-12 23:10:00,60.0,58.0,-100.00,East,87,0.0,0.0,93,0.00,,,0.00,0.000000,,2013-07-13 03:10:00,
2013-07-12 23:47:00,60.0,58.0,-100.00,East,87,0.0,0.0,93,0.00,,,0.00,0.000000,,2013-07-13 03:47:00,